Time;durP1;ratioP1;P1;durP2;ratioP2;P2;SDS_P1;SDS_P2;PMS_P1;PMS_P2;Temp;Humidity;BMP_temperature;BMP_pressure;BME280_temperature;BME280_humidity;BME280_pressure;Samples;Min_cycle;Max_cycle;Signal;HPM_P1;HPM_P2
2023/02/22 00:00:18;;;;;;;13.10;5.10;;;3.00;99.90;;;;;;4998755;28;20109;-78
2023/02/22 00:02:50;;;;;;;48.77;17.50;;;2.90;99.90;;;;;;5000793;28;20022;-78
2023/02/22 00:05:21;;;;;;;219.07;81.37;;;2.90;99.90;;;;;;5000608;28;20387;-77
2023/02/22 00:07:47;;;;;;;49.70;20.37;;;2.80;99.90;;;;;;4999488;28;20033;-77
2023/02/22 00:10:19;;;;;;;33.27;14.37;;;2.70;99.90;;;;;;5000185;28;20022;-78
2023/02/22 00:12:48;;;;;;;23.27;10.63;;;2.60;99.90;;;;;;4999318;28;20034;-78
2023/02/22 00:15:15;;;;;;;19.60;9.40;;;2.60;99.90;;;;;;5000218;28;20026;-77
2023/02/22 00:17:41;;;;;;;17.37;7.87;;;2.60;99.90;;;;;;4998737;28;20031;-77
2023/02/22 00:20:16;;;;;;;18.17;7.20;;;2.50;99.90;;;;;;4999169;28;20030;-77
2023/02/22 00:22:45;;;;;;;17.50;7.65;;;2.60;99.90;;;;;;4999902;28;20030;-77
2023/02/22 00:25:12;;;;;;;17.17;8.03;;;2.50;99.90;;;;;;4998474;28;20050;-78
2023/02/22 00:27:38;;;;;;;25.77;9.50;;;2.50;99.90;;;;;;5013406;28;20052;-78
2023/02/22 00:30:05;;;;;;;23.20;9.20;;;2.50;99.90;;;;;;5000589;28;20034;-78
2023/02/22 00:32:31;;;;;;;18.70;7.37;;;2.50;99.90;;;;;;5000207;28;20117;-78
2023/02/22 00:34:56;;;;;;;14.03;6.60;;;2.40;99.90;;;;;;5000316;28;20658;-77
2023/02/22 00:37:22;;;;;;;11.53;6.00;;;2.40;99.90;;;;;;5000416;28;20023;-76
2023/02/22 00:39:49;;;;;;;12.07;5.67;;;2.30;99.90;;;;;;5002712;28;20074;-77
2023/02/22 00:42:16;;;;;;;15.77;4.80;;;2.40;99.90;;;;;;5003005;28;20224;-76
2023/02/22 00:44:41;;;;;;;11.70;5.37;;;2.40;99.90;;;;;;5001869;28;20032;-76
2023/02/22 00:47:07;;;;;;;11.23;5.40;;;2.30;99.90;;;;;;5001198;28;20026;-76
2023/02/22 00:49:33;;;;;;;9.00;4.67;;;2.30;99.90;;;;;;5001130;28;20486;-76
2023/02/22 00:52:00;;;;;;;12.77;5.27;;;2.30;99.90;;;;;;5001538;28;20128;-76
2023/02/22 00:54:26;;;;;;;11.70;5.87;;;2.30;99.90;;;;;;5003603;28;20022;-77
2023/02/22 00:56:51;;;;;;;15.83;7.77;;;2.40;99.90;;;;;;5000480;28;20042;-76
2023/02/22 00:59:17;;;;;;;22.27;10.13;;;2.30;99.90;;;;;;4999219;28;20030;-77
2023/02/22 01:01:42;;;;;;;22.67;9.97;;;2.30;99.90;;;;;;5000422;28;20067;-76
2023/02/22 01:04:09;;;;;;;19.10;7.87;;;2.30;99.90;;;;;;5002307;28;20038;-76
2023/02/22 01:06:35;;;;;;;16.70;8.60;;;2.30;99.90;;;;;;5000144;28;20037;-76
2023/02/22 01:09:02;;;;;;;19.37;8.13;;;2.30;99.90;;;;;;5000754;28;20490;-76
2023/02/22 01:11:28;;;;;;;13.00;5.43;;;2.30;99.90;;;;;;4997975;28;20826;-76
2023/02/22 01:13:54;;;;;;;12.67;4.87;;;2.20;99.90;;;;;;4999972;28;20018;-77
2023/02/22 01:16:20;;;;;;;11.80;5.40;;;2.20;99.90;;;;;;5006650;28;20414;-76
2023/02/22 01:18:46;;;;;;;13.03;5.57;;;2.20;99.90;;;;;;5007852;28;20018;-76
2023/02/22 01:21:11;;;;;;;14.30;5.40;;;2.10;99.90;;;;;;5006746;28;20029;-76
2023/02/22 01:23:37;;;;;;;13.23;5.40;;;2.10;99.90;;;;;;5009148;28;20097;-76
2023/02/22 01:26:04;;;;;;;11.17;5.30;;;2.00;99.90;;;;;;5006315;28;20038;-77
2023/02/22 01:28:30;;;;;;;10.50;5.30;;;2.00;99.90;;;;;;5005320;28;20172;-77
2023/02/22 01:30:56;;;;;;;10.97;6.10;;;2.00;99.90;;;;;;5007681;28;20068;-76
2023/02/22 01:33:22;;;;;;;14.73;6.07;;;1.90;99.90;;;;;;5008201;28;20033;-76
2023/02/22 01:35:49;;;;;;;11.73;5.90;;;1.90;99.90;;;;;;5006995;28;20050;-76
2023/02/22 01:38:15;;;;;;;10.57;5.80;;;1.90;99.90;;;;;;5008354;28;20022;-76
2023/02/22 01:40:45;;;;;;;13.37;5.83;;;1.80;99.90;;;;;;5005389;28;20026;-77
2023/02/22 01:43:15;;;;;;;11.90;5.93;;;1.80;99.90;;;;;;5009091;28;20193;-76
2023/02/22 01:45:50;;;;;;;10.83;6.53;;;1.80;99.90;;;;;;5008622;28;20101;-77
2023/02/22 01:48:26;;;;;;;11.07;6.07;;;1.80;99.90;;;;;;5008260;28;20547;-76
2023/02/22 01:50:54;;;;;;;11.90;5.70;;;1.80;99.90;;;;;;5008563;28;20471;-76
2023/02/22 01:53:24;;;;;;;9.07;5.43;;;1.80;99.90;;;;;;5004825;28;20053;-77
2023/02/22 01:55:51;;;;;;;13.27;5.37;;;1.80;99.90;;;;;;5007723;28;20028;-77
2023/02/22 01:58:19;;;;;;;10.67;5.30;;;1.80;99.90;;;;;;5003287;28;20506;-77
2023/02/22 02:00:45;;;;;;;10.07;5.53;;;1.80;99.90;;;;;;5008338;28;20765;-76
2023/02/22 02:03:15;;;;;;;10.63;6.23;;;1.80;99.90;;;;;;5008451;28;20022;-76
2023/02/22 02:05:42;;;;;;;13.30;5.43;;;1.80;99.90;;;;;;5006041;28;20117;-77
2023/02/22 02:08:24;;;;;;;9.83;5.50;;;1.80;99.90;;;;;;5002985;28;20022;-76
2023/02/22 02:10:52;;;;;;;10.03;4.93;;;1.80;99.90;;;;;;5004268;28;20018;-77
2023/02/22 02:13:18;;;;;;;11.37;4.90;;;1.80;99.90;;;;;;5005814;28;20022;-77
2023/02/22 02:15:43;;;;;;;10.13;5.00;;;1.80;99.90;;;;;;5005728;28;20100;-76
2023/02/22 02:18:12;;;;;;;10.80;5.10;;;1.80;99.90;;;;;;5008597;28;20038;-76
2023/02/22 02:21:04;;;;;;;9.60;4.90;;;1.80;99.90;;;;;;5007625;28;20104;-77
2023/02/22 02:23:50;;;;;;;11.80;5.37;;;1.80;99.90;;;;;;5004963;28;20033;-77
2023/02/22 02:26:15;;;;;;;16.10;5.72;;;1.80;99.90;;;;;;5006928;28;20038;-77
2023/02/22 02:29:01;;;;;;;10.70;5.60;;;1.80;99.90;;;;;;5006943;28;20325;-77
2023/02/22 02:31:53;;;;;;;13.80;5.50;;;1.90;99.90;;;;;;5008615;28;20026;-77
2023/02/22 02:34:57;;;;;;;10.43;5.40;;;1.90;99.90;;;;;;5006327;28;20021;-77
2023/02/22 02:37:32;;;;;;;11.27;5.37;;;1.90;99.90;;;;;;5019825;28;20496;-77
2023/02/22 02:40:10;;;;;;;8.70;5.22;;;1.90;99.90;;;;;;5006089;28;20045;-77
2023/02/22 02:42:42;;;;;;;13.23;5.13;;;1.90;99.90;;;;;;5007603;28;20037;-77
2023/02/22 02:45:14;;;;;;;12.23;5.50;;;1.80;99.90;;;;;;5005521;28;20033;-76
2023/02/22 02:47:46;;;;;;;16.80;6.70;;;1.80;99.90;;;;;;5005012;28;20061;-76
2023/02/22 02:50:46;;;;;;;10.57;5.67;;;1.80;99.90;;;;;;5006714;28;20485;-77
2023/02/22 02:53:16;;;;;;;8.00;5.13;;;1.80;99.90;;;;;;4988182;28;20100;-77
2023/02/22 02:55:42;;;;;;;13.47;5.33;;;1.80;99.90;;;;;;5000225;28;20108;-77
2023/02/22 02:58:08;;;;;;;12.47;5.60;;;1.80;99.90;;;;;;5006172;28;20053;-77
2023/02/22 03:00:39;;;;;;;11.20;5.43;;;1.70;99.90;;;;;;5002685;28;20160;-77
2023/02/22 03:03:13;;;;;;;8.80;4.43;;;1.60;99.90;;;;;;5004822;28;20156;-77
2023/02/22 03:06:13;;;;;;;11.48;5.07;;;1.60;99.90;;;;;;5017137;28;20034;-76
2023/02/22 03:09:12;;;;;;;8.77;4.97;;;1.50;99.90;;;;;;5001631;28;20027;-76
2023/02/22 03:12:00;;;;;;;15.13;5.07;;;1.50;99.90;;;;;;5007008;28;20024;-76
2023/02/22 03:14:45;;;;;;;8.23;5.10;;;1.50;99.90;;;;;;5004283;28;20061;-77
2023/02/22 03:17:24;;;;;;;8.98;5.28;;;1.50;99.90;;;;;;5001324;28;20419;-76
2023/02/22 03:19:53;;;;;;;9.57;5.17;;;1.40;99.90;;;;;;5003386;28;20324;-77
2023/02/22 03:22:36;;;;;;;9.03;4.73;;;1.40;99.90;;;;;;5002761;28;20049;-77
2023/02/22 03:25:09;;;;;;;12.10;4.43;;;1.40;99.90;;;;;;5006471;28;20506;-77
2023/02/22 03:27:52;;;;;;;7.57;4.60;;;1.40;99.90;;;;;;5004788;28;20034;-76
2023/02/22 03:30:26;;;;;;;8.20;4.20;;;1.40;99.90;;;;;;5006074;28;20114;-76
2023/02/22 03:32:58;;;;;;;10.73;4.50;;;1.40;99.90;;;;;;5018095;28;20141;-76
2023/02/22 03:35:30;;;;;;;8.83;4.43;;;1.40;99.90;;;;;;5006430;28;20261;-76
2023/02/22 03:38:01;;;;;;;10.17;4.80;;;1.30;99.90;;;;;;5006154;28;20034;-76
2023/02/22 03:40:32;;;;;;;12.13;4.43;;;1.30;99.90;;;;;;5006382;28;20030;-76
2023/02/22 03:43:04;;;;;;;9.70;4.00;;;1.30;99.90;;;;;;5002953;28;20033;-77
2023/02/22 03:45:32;;;;;;;7.63;4.67;;;1.30;99.90;;;;;;5006028;28;20022;-76
2023/02/22 03:48:32;;;;;;;11.27;4.30;;;1.30;99.90;;;;;;5005846;28;20018;-76
2023/02/22 03:50:59;;;;;;;13.47;4.77;;;1.30;99.90;;;;;;5014000;28;20037;-76
2023/02/22 03:53:25;;;;;;;9.17;5.63;;;1.30;99.90;;;;;;5006555;28;20495;-76
2023/02/22 03:55:54;;;;;;;7.80;3.97;;;1.40;99.90;;;;;;5007450;28;20065;-77
2023/02/22 03:58:22;;;;;;;11.80;4.20;;;1.40;99.90;;;;;;5001556;28;20022;-77
2023/02/22 04:00:51;;;;;;;6.63;4.20;;;1.40;99.90;;;;;;5005009;28;20364;-76
2023/02/22 04:03:21;;;;;;;7.70;4.10;;;1.40;99.90;;;;;;5006284;28;20032;-76
2023/02/22 04:05:47;;;;;;;7.07;4.30;;;1.40;99.90;;;;;;5016076;28;20029;-77
2023/02/22 04:08:12;;;;;;;8.37;4.47;;;1.40;99.90;;;;;;5001755;28;20041;-76
2023/02/22 04:10:38;;;;;;;10.63;4.10;;;1.30;99.90;;;;;;5001141;28;20034;-77
2023/02/22 04:13:05;;;;;;;7.30;4.40;;;1.30;99.90;;;;;;5005458;28;20029;-77
2023/02/22 04:15:31;;;;;;;8.83;4.33;;;1.30;99.90;;;;;;5008274;28;20029;-76
2023/02/22 04:17:57;;;;;;;9.90;4.40;;;1.30;99.90;;;;;;5010017;28;20088;-76
2023/02/22 04:20:24;;;;;;;8.20;4.33;;;1.30;99.90;;;;;;5005226;28;20026;-77
2023/02/22 04:22:52;;;;;;;9.23;4.30;;;1.30;99.90;;;;;;5009676;28;20014;-77
2023/02/22 04:25:18;;;;;;;10.97;4.00;;;1.20;99.90;;;;;;5007599;28;20018;-77
2023/02/22 04:27:43;;;;;;;7.90;4.47;;;1.30;99.90;;;;;;5006749;28;20056;-77
2023/02/22 04:30:10;;;;;;;7.53;4.20;;;1.30;99.90;;;;;;5006447;28;20061;-77
2023/02/22 04:32:37;;;;;;;8.23;4.63;;;1.20;99.90;;;;;;5007820;28;20068;-77
2023/02/22 04:35:04;;;;;;;7.97;3.73;;;1.20;99.90;;;;;;5002479;28;20049;-77
2023/02/22 04:37:32;;;;;;;10.43;4.67;;;1.20;99.90;;;;;;5006414;28;20160;-77
2023/02/22 04:39:59;;;;;;;10.87;4.07;;;1.20;99.90;;;;;;5004806;28;20026;-77
2023/02/22 04:42:25;;;;;;;11.03;4.20;;;1.20;99.90;;;;;;5008130;28;20061;-77
2023/02/22 04:44:50;;;;;;;11.70;4.17;;;1.20;99.90;;;;;;5001674;28;20050;-77
2023/02/22 04:47:16;;;;;;;10.10;4.07;;;1.20;99.90;;;;;;5005527;28;20018;-77
2023/02/22 04:49:41;;;;;;;8.73;4.27;;;1.20;99.90;;;;;;5005973;28;20037;-77
2023/02/22 04:52:07;;;;;;;8.23;4.07;;;1.20;99.90;;;;;;5000313;28;20065;-77
2023/02/22 04:54:32;;;;;;;9.10;4.70;;;1.20;99.90;;;;;;5005294;28;20030;-77
2023/02/22 04:56:58;;;;;;;8.80;4.40;;;1.20;99.90;;;;;;5006806;28;20078;-77
2023/02/22 04:59:24;;;;;;;11.20;4.73;;;1.20;99.90;;;;;;5000533;28;20082;-77
2023/02/22 05:01:49;;;;;;;10.80;4.90;;;1.20;99.90;;;;;;5003265;28;20049;-77
2023/02/22 05:04:15;;;;;;;10.53;4.60;;;1.20;99.90;;;;;;5008241;28;20014;-77
2023/02/22 05:06:40;;;;;;;14.27;4.83;;;1.20;99.90;;;;;;5007554;28;20021;-77
2023/02/22 05:09:06;;;;;;;13.47;5.33;;;1.10;99.90;;;;;;5009423;28;20081;-77
2023/02/22 05:11:31;;;;;;;13.27;5.20;;;1.20;99.90;;;;;;5002269;28;20541;-77
2023/02/22 05:13:57;;;;;;;11.13;5.17;;;1.20;99.90;;;;;;5005096;28;20053;-77
2023/02/22 05:16:23;;;;;;;9.20;5.20;;;1.10;99.90;;;;;;5006533;28;20022;-77
2023/02/22 05:18:48;;;;;;;10.83;5.60;;;1.20;99.90;;;;;;5002217;28;20018;-77
2023/02/22 05:21:14;;;;;;;10.90;5.67;;;1.20;99.90;;;;;;5004253;28;20068;-77
2023/02/22 05:23:40;;;;;;;11.40;5.53;;;1.20;99.90;;;;;;5004167;28;20014;-77
2023/02/22 05:26:06;;;;;;;11.43;5.60;;;1.20;99.90;;;;;;5003636;28;20120;-76
2023/02/22 05:28:32;;;;;;;18.13;7.33;;;1.20;99.90;;;;;;5005742;28;20080;-76
2023/02/22 05:30:57;;;;;;;15.27;6.00;;;1.20;99.90;;;;;;5006202;28;20022;-76
2023/02/22 05:33:23;;;;;;;15.07;5.80;;;1.20;99.90;;;;;;5004375;28;20061;-76
2023/02/22 05:35:49;;;;;;;10.60;5.23;;;1.10;99.90;;;;;;4999252;28;20595;-76
2023/02/22 05:38:15;;;;;;;14.50;5.77;;;1.20;99.90;;;;;;5004116;28;20471;-76
2023/02/22 05:40:41;;;;;;;11.73;4.77;;;1.20;99.90;;;;;;5001786;28;20029;-75
2023/02/22 05:43:07;;;;;;;10.47;4.40;;;1.20;99.90;;;;;;5006009;28;20414;-75
2023/02/22 05:45:33;;;;;;;10.53;4.50;;;1.10;99.90;;;;;;5000713;28;20490;-76
2023/02/22 05:47:59;;;;;;;13.50;4.53;;;1.10;99.90;;;;;;5001138;28;20033;-76
2023/02/22 05:50:25;;;;;;;8.20;4.20;;;1.10;99.90;;;;;;5001785;28;20031;-76
2023/02/22 05:52:51;;;;;;;13.73;4.43;;;1.10;99.90;;;;;;5003961;28;20053;-76
2023/02/22 05:55:20;;;;;;;12.17;4.77;;;1.10;99.90;;;;;;5004205;28;20101;-76
2023/02/22 05:57:46;;;;;;;9.20;4.27;;;1.00;99.90;;;;;;5003226;28;20113;-76
2023/02/22 06:00:22;;;;;;;6.17;3.60;;;1.00;99.90;;;;;;5002025;28;20169;-76
2023/02/22 06:02:53;;;;;;;13.30;4.07;;;1.00;99.90;;;;;;5004075;28;20025;-76
2023/02/22 06:05:18;;;;;;;13.33;4.33;;;1.00;99.90;;;;;;5000794;28;20031;-76
2023/02/22 06:07:44;;;;;;;8.57;4.03;;;1.00;99.90;;;;;;5002261;28;20052;-75
2023/02/22 06:10:09;;;;;;;9.33;3.80;;;1.00;99.90;;;;;;5003314;28;20420;-75
2023/02/22 06:12:35;;;;;;;8.00;3.80;;;1.00;99.90;;;;;;5000237;28;20652;-75
2023/02/22 06:15:01;;;;;;;10.60;4.63;;;1.00;99.90;;;;;;5001900;28;20622;-76
2023/02/22 06:17:26;;;;;;;10.00;4.90;;;0.90;99.90;;;;;;4998555;28;20030;-76
2023/02/22 06:19:52;;;;;;;8.07;4.80;;;0.90;99.90;;;;;;4996906;28;20118;-75
2023/02/22 06:22:18;;;;;;;8.83;5.03;;;0.90;99.90;;;;;;4997290;28;20022;-75
2023/02/22 06:24:44;;;;;;;9.03;4.87;;;0.90;99.90;;;;;;5000578;28;20026;-76
2023/02/22 06:27:09;;;;;;;8.77;4.60;;;0.90;99.90;;;;;;4996343;28;20030;-75
2023/02/22 06:29:35;;;;;;;7.83;4.33;;;0.90;99.90;;;;;;4997758;28;20127;-75
2023/02/22 06:32:01;;;;;;;6.80;4.00;;;0.90;99.90;;;;;;5000586;28;20025;-75
2023/02/22 06:34:26;;;;;;;8.27;3.80;;;0.80;99.90;;;;;;4996481;28;20447;-75
2023/02/22 06:36:52;;;;;;;13.83;3.70;;;0.90;99.90;;;;;;4996783;28;20034;-75
2023/02/22 06:39:17;;;;;;;7.73;3.80;;;0.90;99.90;;;;;;4999517;28;20041;-75
2023/02/22 06:41:44;;;;;;;13.67;3.80;;;0.80;99.90;;;;;;4997094;28;20036;-75
2023/02/22 06:44:10;;;;;;;7.70;4.20;;;0.80;99.90;;;;;;5000315;28;20022;-75
2023/02/22 06:46:37;;;;;;;14.20;3.97;;;0.80;99.90;;;;;;4997185;28;20057;-75
2023/02/22 06:49:03;;;;;;;9.70;3.90;;;0.80;99.90;;;;;;4997278;28;20084;-75
2023/02/22 06:51:34;;;;;;;8.40;4.33;;;0.90;99.90;;;;;;5003718;28;20045;-75
2023/02/22 06:53:59;;;;;;;7.93;4.20;;;0.90;99.90;;;;;;4996249;28;20049;-75
2023/02/22 06:56:25;;;;;;;7.60;4.00;;;0.90;99.90;;;;;;5002051;28;20026;-75
2023/02/22 06:58:50;;;;;;;8.27;3.57;;;1.00;99.90;;;;;;4998727;28;20065;-81
2023/02/22 07:01:16;;;;;;;7.57;3.83;;;1.00;99.90;;;;;;4996154;28;20359;-81
2023/02/22 07:03:41;;;;;;;12.17;5.17;;;1.10;99.90;;;;;;4998213;28;20045;-80
2023/02/22 07:06:07;;;;;;;12.60;5.30;;;1.10;99.90;;;;;;4999980;28;20152;-80
2023/02/22 07:08:33;;;;;;;12.00;5.80;;;1.20;99.90;;;;;;4998995;28;20029;-81
2023/02/22 07:10:59;;;;;;;13.47;5.67;;;1.20;99.90;;;;;;4999157;28;20061;-81
2023/02/22 07:13:24;;;;;;;11.90;6.30;;;1.30;99.90;;;;;;4996076;28;21464;-80
2023/02/22 07:15:50;;;;;;;11.37;5.50;;;1.30;99.90;;;;;;4994876;28;20447;-80
2023/02/22 07:18:15;;;;;;;11.43;4.67;;;1.40;99.90;;;;;;4996759;28;20060;-80
2023/02/22 07:20:41;;;;;;;16.93;6.07;;;1.50;99.90;;;;;;4998760;28;20509;-81
2023/02/22 07:23:07;;;;;;;13.00;5.57;;;1.50;99.90;;;;;;4998197;28;20121;-80
2023/02/22 07:25:33;;;;;;;15.73;6.13;;;1.60;99.90;;;;;;4999651;28;20024;-80
2023/02/22 07:27:59;;;;;;;12.60;5.37;;;1.70;99.90;;;;;;5000340;28;20062;-81
2023/02/22 07:30:32;;;;;;;10.07;5.27;;;1.80;99.90;;;;;;4999602;28;20422;-81
2023/02/22 07:33:10;;;;;;;15.67;6.10;;;1.90;99.90;;;;;;4995351;28;20886;-81
2023/02/22 07:35:38;;;;;;;17.03;5.70;;;2.00;99.90;;;;;;4999255;28;20038;-81
2023/02/22 07:38:06;;;;;;;12.83;5.67;;;2.10;99.90;;;;;;4999724;28;20030;-80
2023/02/22 07:40:33;;;;;;;13.50;5.70;;;2.20;99.90;;;;;;5000334;28;20665;-80
2023/02/22 07:43:16;;;;;;;17.77;5.17;;;2.30;99.90;;;;;;5002442;28;20033;-80
2023/02/22 07:45:42;;;;;;;8.17;4.67;;;2.40;99.90;;;;;;5011004;28;20488;-80
2023/02/22 07:48:10;;;;;;;10.40;5.00;;;2.50;99.90;;;;;;5000838;28;20037;-80
2023/02/22 07:50:36;;;;;;;9.40;4.93;;;2.70;99.90;;;;;;5004269;28;20434;-80
2023/02/22 07:53:05;;;;;;;10.80;4.77;;;2.80;99.90;;;;;;5005279;28;20053;-80
2023/02/22 07:55:32;;;;;;;5.57;3.60;;;2.90;99.90;;;;;;5003875;28;20036;-80
2023/02/22 07:58:00;;;;;;;7.17;3.77;;;3.00;99.90;;;;;;5003978;28;20042;-80
2023/02/22 08:00:28;;;;;;;7.27;3.77;;;3.10;99.90;;;;;;4999087;28;20032;-80
2023/02/22 08:02:54;;;;;;;7.33;4.23;;;3.30;99.90;;;;;;5003234;28;20030;-80
2023/02/22 08:05:22;;;;;;;6.83;3.60;;;3.40;99.90;;;;;;5006577;28;20025;-80
2023/02/22 08:07:48;;;;;;;6.90;3.87;;;3.50;99.90;;;;;;5003996;28;20030;-80
2023/02/22 08:10:15;;;;;;;10.73;3.53;;;3.60;99.90;;;;;;5003740;28;20026;-80
2023/02/22 08:12:43;;;;;;;9.70;3.87;;;3.70;99.90;;;;;;5004817;28;20034;-80
2023/02/22 08:15:17;;;;;;;8.83;4.50;;;3.90;99.90;;;;;;5003233;28;20806;-80
2023/02/22 08:17:42;;;;;;;9.57;3.33;;;4.00;99.90;;;;;;5001321;28;20076;-80
2023/02/22 08:20:08;;;;;;;8.40;3.93;;;4.20;99.90;;;;;;5010700;28;20097;-80
2023/02/22 08:22:34;;;;;;;12.13;4.70;;;4.30;99.90;;;;;;5005878;28;20040;-80
2023/02/22 08:24:59;;;;;;;7.47;3.57;;;4.50;99.90;;;;;;5006309;28;20022;-80
2023/02/22 08:27:28;;;;;;;8.43;3.97;;;4.70;99.90;;;;;;5002602;28;20040;-80
2023/02/22 08:29:54;;;;;;;6.60;3.80;;;4.80;99.90;;;;;;5003484;28;20025;-77
2023/02/22 08:32:20;;;;;;;6.50;3.07;;;4.90;99.90;;;;;;5005605;28;20040;-76
2023/02/22 08:34:46;;;;;;;6.63;3.27;;;5.10;99.90;;;;;;5003333;28;20092;-76
2023/02/22 08:37:13;;;;;;;9.73;3.67;;;5.30;99.90;;;;;;5006707;28;20489;-76
2023/02/22 08:39:39;;;;;;;8.20;3.10;;;5.50;99.90;;;;;;5004421;28;20046;-76
2023/02/22 08:42:04;;;;;;;8.10;3.50;;;5.70;99.90;;;;;;5006322;28;20417;-76
2023/02/22 08:44:30;;;;;;;5.93;3.33;;;5.90;99.90;;;;;;5006390;28;20026;-76
2023/02/22 08:46:57;;;;;;;10.53;2.87;;;6.10;99.90;;;;;;5001793;28;20034;-76
2023/02/22 08:49:22;;;;;;;6.67;2.70;;;6.30;99.90;;;;;;5003966;28;20018;-76
2023/02/22 08:51:48;;;;;;;6.20;2.43;;;6.50;99.90;;;;;;5006754;28;20168;-76
2023/02/22 08:54:14;;;;;;;6.10;2.53;;;6.70;99.90;;;;;;5002473;28;20091;-76
2023/02/22 08:56:39;;;;;;;6.00;2.50;;;6.80;99.90;;;;;;5006356;28;20156;-76
2023/02/22 08:59:05;;;;;;;6.73;2.93;;;7.00;99.90;;;;;;5004412;28;20029;-76
2023/02/22 09:01:31;;;;;;;5.03;2.90;;;7.20;99.90;;;;;;5004845;28;20104;-76
2023/02/22 09:03:57;;;;;;;5.37;2.63;;;7.40;99.90;;;;;;5004928;28;20022;-76
2023/02/22 09:06:23;;;;;;;6.77;3.03;;;7.50;99.90;;;;;;5005496;28;20104;-77
2023/02/22 09:08:49;;;;;;;5.43;2.80;;;7.80;99.90;;;;;;5004192;28;20113;-76
2023/02/22 09:11:14;;;;;;;5.37;2.80;;;7.80;99.90;;;;;;5001513;28;20604;-76
2023/02/22 09:13:40;;;;;;;8.73;2.93;;;8.00;99.90;;;;;;5007105;28;20467;-76
2023/02/22 09:16:05;;;;;;;4.87;2.57;;;8.20;99.90;;;;;;5002622;28;20031;-76
2023/02/22 09:18:31;;;;;;;4.13;2.30;;;8.30;99.90;;;;;;5001588;28;20072;-76
2023/02/22 09:20:57;;;;;;;3.77;2.37;;;8.30;99.90;;;;;;5002621;28;20029;-77
2023/02/22 09:23:22;;;;;;;5.57;2.70;;;8.40;99.90;;;;;;5004928;28;20513;-77
2023/02/22 09:25:48;;;;;;;6.03;2.63;;;8.50;99.90;;;;;;5006404;28;20034;-76
2023/02/22 09:28:14;;;;;;;7.47;2.97;;;8.60;99.90;;;;;;5000425;28;20933;-76
2023/02/22 09:30:40;;;;;;;6.43;3.83;;;8.80;99.90;;;;;;5002586;28;20101;-77
2023/02/22 09:33:09;;;;;;;8.20;4.10;;;8.90;99.90;;;;;;5005973;28;20459;-76
2023/02/22 09:35:35;;;;;;;8.23;3.30;;;9.10;99.90;;;;;;5004108;28;20025;-77
2023/02/22 09:38:05;;;;;;;6.67;2.80;;;9.20;99.90;;;;;;5003571;28;20022;-76
2023/02/22 09:40:32;;;;;;;5.00;2.67;;;9.40;99.90;;;;;;5008721;28;20071;-77
2023/02/22 09:43:17;;;;;;;9.10;3.17;;;9.50;99.90;;;;;;5010877;28;20018;-77
2023/02/22 09:45:43;;;;;;;6.30;2.40;;;9.70;99.90;;;;;;5010572;28;20390;-77
2023/02/22 09:48:14;;;;;;;8.73;3.10;;;9.90;99.90;;;;;;5009038;28;20045;-76
2023/02/22 09:50:41;;;;;;;7.90;3.37;;;10.00;99.90;;;;;;5009058;28;20021;-77
2023/02/22 09:53:28;;;;;;;8.37;3.37;;;10.10;99.90;;;;;;5009584;28;20435;-77
2023/02/22 09:56:03;;;;;;;15.17;8.47;;;10.20;99.90;;;;;;5018541;28;20034;-77
2023/02/22 09:58:35;;;;;;;8.80;3.63;;;10.20;99.90;;;;;;5003698;28;20080;-77
2023/02/22 10:01:13;;;;;;;13.93;8.00;;;10.40;99.90;;;;;;5005472;28;20069;-77
2023/02/22 10:03:50;;;;;;;63.07;37.30;;;10.50;99.90;;;;;;5007266;28;20068;-77
2023/02/22 10:06:20;;;;;;;10.57;3.43;;;10.50;99.90;;;;;;5007335;28;20026;-77
2023/02/22 10:08:46;;;;;;;73.57;42.17;;;10.70;99.90;;;;;;5005840;28;20049;-77
2023/02/22 10:11:30;;;;;;;22.93;11.13;;;10.80;99.90;;;;;;5002703;28;20026;-77
2023/02/22 10:14:20;;;;;;;6.05;3.25;;;10.90;99.90;;;;;;5003837;28;20477;-77
2023/02/22 10:16:55;;;;;;;58.75;33.13;;;11.00;99.90;;;;;;5002822;28;20029;-77
2023/02/22 10:19:30;;;;;;;17.00;10.55;;;11.20;99.90;;;;;;5001989;28;20105;-77
2023/02/22 10:22:09;;;;;;;5.45;2.80;;;11.40;99.90;;;;;;5005059;28;20022;-77
2023/02/22 10:24:45;;;;;;;5.13;2.65;;;11.60;99.90;;;;;;5014371;28;20948;-77
2023/02/22 10:27:27;;;;;;;9.05;3.40;;;11.90;99.90;;;;;;5001629;28;20038;-77
2023/02/22 10:30:17;;;;;;;10.68;5.10;;;12.20;99.90;;;;;;5002237;28;20025;-77
2023/02/22 10:32:46;;;;;;;86.70;51.38;;;12.20;99.90;;;;;;5003223;28;20130;-77
2023/02/22 10:35:28;;;;;;;14.07;8.70;;;12.30;99.90;;;;;;4997813;28;20390;-77
2023/02/22 10:37:58;;;;;;;11.13;3.40;;;12.40;99.90;;;;;;5002852;28;20371;-77
2023/02/22 10:40:31;;;;;;;5.93;2.63;;;12.50;99.90;;;;;;5003668;28;20724;-77
2023/02/22 10:43:07;;;;;;;4.85;2.58;;;12.60;99.90;;;;;;5003762;28;20038;-77
2023/02/22 10:45:35;;;;;;;5.75;1.83;;;12.60;99.90;;;;;;5000398;28;20031;-77
2023/02/22 10:48:10;;;;;;;3.65;1.83;;;12.90;99.90;;;;;;5003717;28;20014;-77
2023/02/22 10:50:39;;;;;;;5.68;2.17;;;13.00;99.90;;;;;;5000726;28;20037;-77
2023/02/22 10:53:05;;;;;;;9.05;2.25;;;13.00;99.90;;;;;;5005377;28;20049;-77
2023/02/22 10:55:31;;;;;;;7.75;1.85;;;13.00;99.90;;;;;;5005797;28;20646;-77
2023/02/22 10:58:07;;;;;;;7.10;1.90;;;13.20;99.90;;;;;;5002705;28;20038;-77
2023/02/22 11:00:38;;;;;;;7.10;1.90;;;13.20;99.90;;;;;;5007556;28;20666;-77
2023/02/22 11:03:19;;;;;;;7.43;1.77;;;13.40;99.90;;;;;;5002092;28;20014;-77
2023/02/22 11:05:45;;;;;;;6.57;1.95;;;13.70;99.90;;;;;;5002594;28;20014;-77
2023/02/22 11:08:19;;;;;;;6.72;2.03;;;14.00;99.90;;;;;;5004724;28;20513;-77
2023/02/22 11:10:46;;;;;;;7.18;2.10;;;14.20;99.90;;;;;;5006156;28;20026;-77
2023/02/22 11:13:30;;;;;;;7.22;1.92;;;14.50;99.90;;;;;;5006465;28;20029;-77
2023/02/22 11:16:02;;;;;;;10.07;2.35;;;14.70;99.90;;;;;;5004275;28;20086;-77
2023/02/22 11:18:37;;;;;;;9.63;2.78;;;14.80;99.90;;;;;;5001582;28;20116;-77
2023/02/22 11:21:10;;;;;;;14.93;2.50;;;15.20;99.90;;;;;;5005911;28;20442;-77
2023/02/22 11:23:41;;;;;;;8.15;2.38;;;15.30;99.90;;;;;;5000391;28;20375;-77
2023/02/22 11:26:14;;;;;;;9.23;2.05;;;15.40;99.90;;;;;;5016124;28;20065;-77
2023/02/22 11:28:48;;;;;;;12.45;2.45;;;15.80;99.90;;;;;;5004479;28;20029;-77
2023/02/22 11:31:41;;;;;;;7.55;2.28;;;15.80;99.90;;;;;;5007866;28;20100;-77
2023/02/22 11:34:28;;;;;;;13.20;2.20;;;15.90;99.90;;;;;;5004417;28;20191;-78
2023/02/22 11:36:53;;;;;;;9.05;2.38;;;15.80;99.90;;;;;;5006918;28;20486;-77
2023/02/22 11:39:24;;;;;;;9.52;2.25;;;15.80;99.90;;;;;;5008090;28;20022;-77
2023/02/22 11:41:50;;;;;;;13.10;2.38;;;15.80;99.90;;;;;;5004815;28;20126;-77
2023/02/22 11:44:30;;;;;;;13.40;2.20;;;15.70;99.90;;;;;;5003020;28;20153;-77
2023/02/22 11:47:05;;;;;;;5.50;2.38;;;15.80;99.90;;;;;;5007973;28;20033;-77
2023/02/22 11:49:37;;;;;;;9.07;2.65;;;15.80;99.90;;;;;;5007900;28;20632;-77
2023/02/22 11:52:29;;;;;;;8.57;2.55;;;15.90;99.90;;;;;;5004623;28;20077;-77
2023/02/22 11:55:21;;;;;;;7.45;2.45;;;15.90;99.90;;;;;;5003569;28;20030;-77
2023/02/22 11:58:03;;;;;;;12.13;2.63;;;16.00;99.90;;;;;;5000720;28;20045;-77
2023/02/22 12:00:44;;;;;;;7.88;2.50;;;16.10;99.90;;;;;;5009160;28;20025;-77
2023/02/22 12:03:34;;;;;;;6.93;2.22;;;16.10;99.90;;;;;;5003684;28;20025;-77
2023/02/22 12:06:18;;;;;;;7.63;2.47;;;16.30;99.90;;;;;;5008621;28;20048;-77
2023/02/22 12:09:12;;;;;;;13.57;2.78;;;16.20;99.90;;;;;;5004299;28;20029;-77
2023/02/22 12:11:59;;;;;;;14.98;2.63;;;16.20;99.90;;;;;;5004378;28;20026;-78
2023/02/22 12:14:48;;;;;;;8.18;2.40;;;16.30;99.90;;;;;;5010110;28;20069;-77
2023/02/22 12:17:55;;;;;;;7.60;2.33;;;16.40;99.80;;;;;;5002182;28;20053;-77
2023/02/22 12:20:24;;;;;;;8.18;2.67;;;16.60;99.30;;;;;;5003356;28;20118;-77
2023/02/22 12:22:55;;;;;;;6.18;2.42;;;16.60;99.00;;;;;;5007717;28;20030;-77
2023/02/22 12:25:28;;;;;;;9.05;2.10;;;16.40;99.10;;;;;;5004218;28;20029;-77
2023/02/22 12:28:12;;;;;;;6.97;2.53;;;16.30;98.20;;;;;;5006123;28;20026;-78
2023/02/22 12:30:44;;;;;;;9.93;2.55;;;16.20;99.20;;;;;;5003348;28;20031;-77
2023/02/22 12:33:18;;;;;;;3.58;2.10;;;16.30;97.90;;;;;;5003751;28;20029;-77
2023/02/22 12:35:50;;;;;;;9.57;2.73;;;16.40;98.60;;;;;;5005058;28;20042;-77
2023/02/22 12:38:43;;;;;;;6.97;2.05;;;16.40;98.70;;;;;;5001601;28;20610;-77
2023/02/22 12:41:27;;;;;;;6.97;2.08;;;16.50;98.50;;;;;;5003552;28;20030;-77
2023/02/22 12:44:01;;;;;;;6.93;2.13;;;16.40;98.20;;;;;;5017040;28;20030;-80
2023/02/22 12:46:36;;;;;;;5.88;2.13;;;16.40;97.70;;;;;;5009659;28;20479;-80
2023/02/22 12:49:12;;;;;;;8.90;2.00;;;16.20;96.60;;;;;;5006138;28;20513;-80
2023/02/22 12:52:11;;;;;;;8.82;2.03;;;16.10;97.90;;;;;;4968479;28;1068232;-80
2023/02/22 12:54:54;;;;;;;3.45;1.73;;;16.00;97.90;;;;;;5005575;28;20025;-80
2023/02/22 12:57:35;;;;;;;5.65;1.83;;;16.00;97.30;;;;;;5010715;28;20089;-80
2023/02/22 13:00:09;;;;;;;8.02;2.45;;;16.00;98.00;;;;;;5005160;28;20030;-80
2023/02/22 13:03:08;;;;;;;6.80;1.30;;;16.20;96.90;;;;;;5005416;28;20049;-80
2023/02/22 13:05:38;;;;;;;5.25;1.58;;;16.10;96.30;;;;;;5005884;28;20022;-80